This is the latest recevied weather packets stored in our database for station/object VE3MNX. If no packets are shown the sender has not sent any weather packets the latest 10 day(s).
| Time | Temp. | Humidity | Pressure | Rain* | Wind** | Luminosity | Snow |
|---|---|---|---|---|---|---|---|
| 1778226878 | 7.78° C | 87% | 1010.2 hPa | 0 mm | - | - | - |
| 1778225979 | 7.78° C | 86% | 1010.2 hPa | 0 mm | - | - | - |
| 1778225078 | 7.78° C | 81% | 1010.5 hPa | 0 mm | - | - | - |
| 1778224178 | 8.33° C | 80% | 1010.2 hPa | 0 mm | - | - | - |
| 1778223278 | 8.33° C | 78% | 1010.2 hPa | 0 mm | - | - | - |
| 1778222378 | 8.33° C | 79% | 1010.3 hPa | 0 mm | - | - | - |
| 1778221479 | 8.89° C | 76% | 1010.4 hPa | 0 mm | - | - | - |
| 1778220578 | 9.44° C | 71% | 1010.2 hPa | 0 mm | - | - | - |
| 1778219678 | 9.44° C | 69% | 1010.2 hPa | 0 mm | - | - | - |
| 1778218779 | 8.89° C | 70% | 1010.5 hPa | 0 mm | - | - | - |
| 1778217878 | 8.89° C | 71% | 1010.8 hPa | 0 mm | - | - | - |
| 1778216978 | 8.89° C | 70% | 1010.8 hPa | 0 mm | - | - | - |
| 1778216082 | 8.89° C | 69% | 1010.8 hPa | 0 mm | - | - | - |
| 1778215179 | 9.44° C | 67% | 1010.8 hPa | 0 mm | - | - | - |
| 1778214283 | 10° C | 65% | 1010.5 hPa | 0 mm | - | - | - |
| 1778213380 | 10° C | 63% | 1010.8 hPa | 0 mm | - | - | - |
| 1778212398 | 10.56° C | 60% | 1011.1 hPa | 0 mm | - | - | - |
| 1778211497 | 11.11° C | 56% | 1010.8 hPa | 0 mm | - | - | - |
| 1778210600 | 10° C | 61% | 1011.2 hPa | 0 mm | - | - | - |
| 1778209697 | 10° C | 61% | 1010.8 hPa | 0 mm | - | - | - |
| 1778208799 | 9.44° C | 64% | 1010.5 hPa | 0 mm | - | - | - |
| 1778207897 | 9.44° C | 59% | 1010.8 hPa | 0 mm | - | - | - |
| 1778206999 | 9.44° C | 62% | 1010.8 hPa | 0 mm | - | - | - |
| 1778206099 | 9.44° C | 56% | 1010.5 hPa | 0 mm | - | - | - |
| 1778205199 | 9.44° C | 57% | 1010.5 hPa | 0 mm | - | - | - |
* Rain latest hour (hover to see other rain measurements)
** Current wind speed in m/s (hover to see current wind gust speed)